Aeroporto :
LOGIN :

Iscrizione | Disclaimer

   EN    FR    IT 

 










Sommario :    VFR   VFR Marginale   IFR   IFR Intensivo   IFR Molto Intensivo
Visibilità : 
Base nubi : 
>= 8 km
>= 3000ft
5 / 8 km
1000 / 3000 ft
1500m / 5 km
500 / 1000 ft
800 / 1500m
200 / 500 ft
< 800m
< 200 ft
Simboli :   Temporali  Nebbia  Neve Forte  Precipitazioni Forti  Vento > 20 kt
SIGMETs :   Varie  Temporali  Ghiacco  Turbolenza  Onda orograficha  Ceneri Vulcaniche






- Altitudine del aeroporto : 75 ft
- Codice IATA : YEO


EGDY - RNAS Yeovilton

ULTIMO METAR :
  • 300920Z 19008KT 9999 FEW015 BKN140 14/12 Q1007 NOSIG RMK BLU BLU

METARs OBSOLETI :
  • 300850Z 20004KT 9999 FEW014 BKN140 12/12 Q1008 NOSIG RMK BLU BLU
  • 300820Z 21001KT 9999 FEW014 BKN160 10/09 Q1008 NOSIG RMK BLU BLU
  • 300750Z 06001KT 9999 MIFG FEW000 BKN200 08/08 Q1008 NOSIG RMK BLU BLU
  • 300720Z 10001KT 9999 MIFG FEW000 BKN200 07/07 Q1009 NOSIG RMK BLU BLU

TAF TAF EGDY
Valido dal 30 a 07 ore il 30 a 16 ore UTC


300603Z 3007/3016 20003KT 7000 BR FEW000
TEMPO 3007/3009 0500 FG SCT000
BECMG 3007/3009 21010KT 9999 NSW FEW022
BECMG 3010/3012 21015G25KT BKN022
TEMPO 3011/3016 21020G30KT 5000 RA SCT012



MetMap, La meteo Aeronautica in un colpo d'occhio ! - Copyright ORBIFLY Dicembre 2007 - Disclaimer

ORBIFLY MET'MAP TEAM :

Programmazione e sviluppo : Alexandra Zaïnal
Concezione : Baudouin d'Aumeries
Supporto tecnico e logistico : Manuel Goepfert
Aiuto : Marc-Olivier Méhu
Aiuto per la traduzione : Arnaldo La Scala




FONTI E CREDITI :

   NOAA